< < Back
Terminal Aerodrome Forecast


Current Version              Previous Versions:   1  2  3  4  5  6  7  8  9  

Terminal Aerodrome Forecast

470
FTUS44 KBMX 300520
TAFBHM
TAF
KBHM 300520Z 3006/3106 14004KT P6SM SCT250
     FM301800 17007KT P6SM SCT050=

Latest METAR

915
SAUS70 KWBC 301800 RRA
MTRBHM
METAR KBHM 301753Z 21005KT 10SM BKN044 BKN060 BKN250 28/18 A3013 RMK AO2
SLP195 T02780183 10283 20211 58008


USA.gov is the U.S. government's official web portal to all federal, state and local government web resources and services.